Time;durP1;ratioP1;P1;durP2;ratioP2;P2;SDS_P1;SDS_P2;PMS_P1;PMS_P2;Temp;Humidity;BMP_temperature;BMP_pressure;BME280_temperature;BME280_humidity;BME280_pressure;Samples;Min_cycle;Max_cycle;Signal;HPM_P1;HPM_P2
2022/08/16 00:01:38;;;;;;;14.60;12.10;;;;;;;;;;5049285;28;20210;-73
2022/08/16 00:04:43;;;;;;;19.57;13.50;;;;;;;;;;5038339;28;20230;-73
2022/08/16 00:07:18;;;;;;;15.33;12.57;;;;;;;;;;5046869;28;20191;-75
2022/08/16 00:09:47;;;;;;;17.07;11.77;;;;;;;;;;5047739;28;20230;-73
2022/08/16 00:12:17;;;;;;;17.10;13.10;;;;;;;;;;5049371;28;20202;-74
2022/08/16 00:14:46;;;;;;;13.73;11.17;;;;;;;;;;5049157;28;20732;-73
2022/08/16 00:17:21;;;;;;;14.33;10.40;;;;;;;;;;5010718;28;20205;-73
2022/08/16 00:19:55;;;;;;;15.07;10.63;;;;;;;;;;5049438;28;20195;-73
2022/08/16 00:22:41;;;;;;;11.83;9.70;;;;;;;;;;5040363;28;20215;-73
2022/08/16 00:25:18;;;;;;;10.93;9.70;;;;;;;;;;5029315;28;20599;-73
2022/08/16 00:28:20;;;;;;;13.47;11.13;;;;;;;;;;5041026;28;20229;-73
2022/08/16 00:31:04;;;;;;;12.67;9.50;;;;;;;;;;5047552;28;20191;-73
2022/08/16 00:33:35;;;;;;;12.50;9.10;;;;;;;;;;5027401;28;20215;-73
2022/08/16 00:36:15;;;;;;;11.70;9.77;;;;;;;;;;5047442;28;20656;-73
2022/08/16 00:39:32;;;;;;;14.83;11.13;;;;;;;;;;5049765;28;20198;-73
2022/08/16 00:42:04;;;;;;;15.13;12.07;;;;;;;;;;5025765;28;20222;-74
2022/08/16 00:44:39;;;;;;;16.43;11.80;;;;;;;;;;5021128;28;20206;-73
2022/08/16 00:50:21;;;;;;;13.33;10.23;;;;;;;;;;5027403;28;20233;-73
2022/08/16 00:53:04;;;;;;;11.07;9.40;;;;;;;;;;5044582;28;20190;-73
2022/08/16 00:55:48;;;;;;;13.57;11.73;;;;;;;;;;5040911;28;20263;-73
2022/08/16 00:58:30;;;;;;;13.07;11.77;;;;;;;;;;5048712;28;20198;-73
2022/08/16 01:01:22;;;;;;;14.00;12.17;;;;;;;;;;5023096;28;20194;-73
2022/08/16 01:03:53;;;;;;;18.07;12.73;;;;;;;;;;5030218;28;20209;-73
2022/08/16 01:06:58;;;;;;;10.93;9.50;;;;;;;;;;5065379;28;20202;-73
2022/08/16 01:09:40;;;;;;;18.07;12.93;;;;;;;;;;5069928;28;20221;-73
2022/08/16 01:12:21;;;;;;;12.80;10.20;;;;;;;;;;5051914;28;20661;-73
2022/08/16 01:14:56;;;;;;;13.97;11.10;;;;;;;;;;5068300;28;20281;-73
2022/08/16 01:17:32;;;;;;;14.43;12.57;;;;;;;;;;5051236;28;20828;-73
2022/08/16 01:20:36;;;;;;;16.20;13.53;;;;;;;;;;5033335;28;20229;-74
2022/08/16 01:23:28;;;;;;;15.13;13.53;;;;;;;;;;5051900;28;20205;-73
2022/08/16 01:26:24;;;;;;;17.70;13.07;;;;;;;;;;5036310;28;20235;-73
2022/08/16 01:29:16;;;;;;;14.07;11.37;;;;;;;;;;5065977;28;20274;-73
2022/08/16 01:32:11;;;;;;;17.23;12.77;;;;;;;;;;5053085;28;20709;-74
2022/08/16 01:34:58;;;;;;;12.67;10.50;;;;;;;;;;5073399;28;20198;-73
2022/08/16 01:37:24;;;;;;;12.80;11.33;;;;;;;;;;5067737;28;20670;-73
2022/08/16 01:40:12;;;;;;;13.17;11.37;;;;;;;;;;5046937;28;20268;-73
2022/08/16 01:42:56;;;;;;;17.20;12.63;;;;;;;;;;5029658;28;20189;-73
2022/08/16 01:45:34;;;;;;;17.23;13.83;;;;;;;;;;5052203;28;20270;-73
2022/08/16 01:48:13;;;;;;;14.97;12.43;;;;;;;;;;5062072;28;20218;-73
2022/08/16 01:50:48;;;;;;;14.40;11.00;;;;;;;;;;5046649;28;20197;-73
2022/08/16 01:53:36;;;;;;;12.13;10.90;;;;;;;;;;5050464;28;20197;-73
2022/08/16 01:56:27;;;;;;;12.40;10.77;;;;;;;;;;5022953;28;20197;-72
2022/08/16 01:58:58;;;;;;;14.57;11.80;;;;;;;;;;5044731;28;20236;-73
2022/08/16 02:02:11;;;;;;;12.87;11.30;;;;;;;;;;5057548;28;20193;-72
2022/08/16 02:04:59;;;;;;;17.27;12.60;;;;;;;;;;5066847;28;20222;-73
2022/08/16 02:08:01;;;;;;;11.03;9.70;;;;;;;;;;5041933;28;20215;-72
2022/08/16 02:10:32;;;;;;;13.10;11.73;;;;;;;;;;5051159;28;20308;-72
2022/08/16 02:13:25;;;;;;;19.53;12.80;;;;;;;;;;5066594;28;20230;-73
2022/08/16 02:16:22;;;;;;;15.37;10.77;;;;;;;;;;5032974;28;20315;-72
2022/08/16 02:19:03;;;;;;;13.00;11.70;;;;;;;;;;5066551;28;20653;-72
2022/08/16 02:22:16;;;;;;;12.17;10.87;;;;;;;;;;5067582;28;20676;-72
2022/08/16 02:25:12;;;;;;;12.90;10.83;;;;;;;;;;5051940;28;20297;-72
2022/08/16 02:27:46;;;;;;;14.37;11.17;;;;;;;;;;5064092;28;20197;-72
2022/08/16 02:30:39;;;;;;;12.90;11.60;;;;;;;;;;5063958;28;20190;-72
2022/08/16 02:33:46;;;;;;;14.30;11.00;;;;;;;;;;5071963;28;20197;-72
2022/08/16 02:36:33;;;;;;;13.10;9.97;;;;;;;;;;5040116;28;20266;-72
2022/08/16 02:39:44;;;;;;;13.30;10.57;;;;;;;;;;5052916;28;20198;-72
2022/08/16 02:42:25;;;;;;;13.73;11.00;;;;;;;;;;5038555;28;20280;-73
2022/08/16 02:45:01;;;;;;;13.87;11.47;;;;;;;;;;5033763;28;20924;-72
2022/08/16 02:47:40;;;;;;;12.93;11.00;;;;;;;;;;5052295;28;20202;-73
2022/08/16 02:50:30;;;;;;;11.40;9.60;;;;;;;;;;5065963;28;20867;-72
2022/08/16 02:53:30;;;;;;;10.70;9.60;;;;;;;;;;5052045;28;20887;-72
2022/08/16 02:56:19;;;;;;;10.73;9.20;;;;;;;;;;5052753;28;20216;-72
2022/08/16 02:59:06;;;;;;;9.57;8.67;;;;;;;;;;5055828;28;20280;-72
2022/08/16 03:02:13;;;;;;;14.17;12.20;;;;;;;;;;5042254;28;20716;-72
2022/08/16 03:05:10;;;;;;;12.50;11.23;;;;;;;;;;5047663;28;21058;-72
2022/08/16 03:08:51;;;;;;;12.97;11.33;;;;;;;;;;5028740;28;20318;-72
2022/08/16 03:12:05;;;;;;;16.90;12.90;;;;;;;;;;5027326;28;20222;-72
2022/08/16 03:14:38;;;;;;;14.10;12.60;;;;;;;;;;5019310;28;20258;-72
2022/08/16 03:17:13;;;;;;;12.33;9.70;;;;;;;;;;5008821;28;20574;-72
2022/08/16 03:20:05;;;;;;;15.60;12.27;;;;;;;;;;5007696;28;20235;-72
2022/08/16 03:22:49;;;;;;;11.13;9.93;;;;;;;;;;4995000;28;20201;-72
2022/08/16 03:25:21;;;;;;;10.60;9.17;;;;;;;;;;5004977;28;20196;-72
2022/08/16 03:28:10;;;;;;;11.67;9.83;;;;;;;;;;5014727;28;20217;-73
2022/08/16 03:30:58;;;;;;;12.13;10.47;;;;;;;;;;5034192;28;20489;-73
2022/08/16 03:33:51;;;;;;;16.17;12.53;;;;;;;;;;5028041;28;20245;-75
2022/08/16 03:36:23;;;;;;;13.33;11.93;;;;;;;;;;5012228;28;20548;-72
2022/08/16 03:39:10;;;;;;;21.50;12.20;;;;;;;;;;5013611;28;20188;-72
2022/08/16 03:41:50;;;;;;;10.57;9.47;;;;;;;;;;5023796;28;20206;-73
2022/08/16 03:44:31;;;;;;;14.93;11.77;;;;;;;;;;5021540;28;20199;-72
2022/08/16 03:47:28;;;;;;;11.90;10.10;;;;;;;;;;5035341;28;20216;-73
2022/08/16 03:50:15;;;;;;;11.80;10.57;;;;;;;;;;5006127;28;20693;-73
2022/08/16 03:52:59;;;;;;;11.33;10.17;;;;;;;;;;5021991;28;20673;-73
2022/08/16 03:55:37;;;;;;;12.00;10.80;;;;;;;;;;5016607;28;20214;-73
2022/08/16 03:58:24;;;;;;;12.70;11.40;;;;;;;;;;5027983;28;20272;-73
2022/08/16 04:01:23;;;;;;;11.90;10.20;;;;;;;;;;5034611;28;20194;-72
2022/08/16 04:04:11;;;;;;;13.23;11.77;;;;;;;;;;5008481;28;20190;-73
2022/08/16 04:07:03;;;;;;;16.43;13.20;;;;;;;;;;5028075;28;20272;-73
2022/08/16 04:09:40;;;;;;;18.60;13.67;;;;;;;;;;5029349;28;20232;-73
2022/08/16 04:12:24;;;;;;;13.40;11.47;;;;;;;;;;5015386;28;20539;-72
2022/08/16 04:15:16;;;;;;;15.53;13.87;;;;;;;;;;5024940;28;20202;-72
2022/08/16 04:18:03;;;;;;;12.93;11.33;;;;;;;;;;5046992;28;20198;-72
2022/08/16 04:21:04;;;;;;;14.00;12.10;;;;;;;;;;5005278;28;20194;-71
2022/08/16 04:24:02;;;;;;;15.90;13.00;;;;;;;;;;5034621;28;20193;-71
2022/08/16 04:26:52;;;;;;;13.50;12.10;;;;;;;;;;5042208;28;20197;-71
2022/08/16 04:29:37;;;;;;;19.07;16.03;;;;;;;;;;5063073;28;20632;-70
2022/08/16 04:32:32;;;;;;;13.97;12.47;;;;;;;;;;5068750;28;20662;-71
2022/08/16 04:36:16;;;;;;;16.53;14.37;;;;;;;;;;5027570;28;20197;-70
2022/08/16 04:39:58;;;;;;;14.67;13.23;;;;;;;;;;5055316;28;20205;-71
2022/08/16 04:43:18;;;;;;;19.27;13.90;;;;;;;;;;4969431;28;20186;-71
2022/08/16 04:47:03;;;;;;;15.67;14.07;;;;;;;;;;4960221;28;20231;-70
2022/08/16 04:51:10;;;;;;;19.03;15.17;;;;;;;;;;4953709;28;20209;-70
2022/08/16 04:55:12;;;;;;;18.87;15.83;;;;;;;;;;4947516;28;20200;-71
2022/08/16 04:59:03;;;;;;;20.27;15.83;;;;;;;;;;4936066;29;20304;-71
2022/08/16 05:01:55;;;;;;;18.87;16.53;;;;;;;;;;4954977;28;20286;-71
2022/08/16 05:08:50;;;;;;;24.43;17.73;;;;;;;;;;4955261;28;20240;-70
2022/08/16 05:12:43;;;;;;;21.13;16.57;;;;;;;;;;4913461;29;20187;-69
2022/08/16 05:15:51;;;;;;;20.67;17.30;;;;;;;;;;4872786;29;20622;-70
2022/08/16 05:19:42;;;;;;;21.27;17.50;;;;;;;;;;4833595;29;20607;-69
2022/08/16 05:22:44;;;;;;;21.53;16.17;;;;;;;;;;4834860;29;20981;-71
2022/08/16 05:25:14;;;;;;;23.30;17.47;;;;;;;;;;4820096;29;20209;-69
2022/08/16 05:27:59;;;;;;;17.53;15.40;;;;;;;;;;4835921;29;20198;-71
2022/08/16 05:30:26;;;;;;;20.00;16.67;;;;;;;;;;4835467;29;20933;-70
2022/08/16 05:33:12;;;;;;;18.97;16.13;;;;;;;;;;4835553;29;20243;-69
2022/08/16 05:35:43;;;;;;;20.13;16.30;;;;;;;;;;4821069;29;20217;-68
2022/08/16 05:38:53;;;;;;;18.33;16.47;;;;;;;;;;4851090;29;20665;-71
2022/08/16 05:41:20;;;;;;;18.50;16.50;;;;;;;;;;4890314;29;20293;-74
2022/08/16 05:43:48;;;;;;;17.53;15.00;;;;;;;;;;4924009;29;20206;-73
2022/08/16 05:46:23;;;;;;;18.57;14.03;;;;;;;;;;4955281;28;21121;-60
2022/08/16 05:49:12;;;;;;;16.90;15.20;;;;;;;;;;4991618;28;20587;-71
2022/08/16 05:51:41;;;;;;;18.77;15.67;;;;;;;;;;4989921;28;20203;-71
2022/08/16 05:54:23;;;;;;;18.20;16.27;;;;;;;;;;5010720;28;20202;-72
2022/08/16 05:57:05;;;;;;;20.33;16.53;;;;;;;;;;5006208;28;20290;-72
2022/08/16 05:59:59;;;;;;;17.93;15.90;;;;;;;;;;4995879;28;20700;-72
2022/08/16 06:02:42;;;;;;;18.87;16.27;;;;;;;;;;5002152;28;20298;-72
2022/08/16 06:05:58;;;;;;;20.30;15.67;;;;;;;;;;5003567;28;20224;-72
2022/08/16 06:08:32;;;;;;;18.37;15.77;;;;;;;;;;4992813;28;20196;-73
2022/08/16 06:11:12;;;;;;;18.17;16.27;;;;;;;;;;5050345;28;20205;-72
2022/08/16 06:14:07;;;;;;;17.73;15.93;;;;;;;;;;5018876;28;20615;-74
2022/08/16 06:16:38;;;;;;;18.93;16.20;;;;;;;;;;5017000;28;20238;-72
2022/08/16 06:19:06;;;;;;;19.13;16.60;;;;;;;;;;5024996;28;20183;-71
2022/08/16 06:21:42;;;;;;;19.67;16.23;;;;;;;;;;5021361;28;20198;-72
2022/08/16 06:24:09;;;;;;;23.47;16.80;;;;;;;;;;5039750;28;20202;-72
2022/08/16 06:26:59;;;;;;;19.50;15.43;;;;;;;;;;5052265;28;20202;-72
2022/08/16 06:29:40;;;;;;;20.27;15.57;;;;;;;;;;5023935;28;20940;-71
2022/08/16 06:32:10;;;;;;;18.93;16.97;;;;;;;;;;5037131;28;20230;-72
2022/08/16 06:34:53;;;;;;;18.07;15.87;;;;;;;;;;5038629;28;20329;-74
2022/08/16 06:37:42;;;;;;;18.60;16.20;;;;;;;;;;5040442;28;20194;-70
2022/08/16 06:40:17;;;;;;;18.13;16.17;;;;;;;;;;5009023;28;20672;-70
2022/08/16 06:42:51;;;;;;;18.03;16.20;;;;;;;;;;5038654;28;20673;-71
2022/08/16 06:45:37;;;;;;;18.60;15.80;;;;;;;;;;5021044;28;20887;-71
2022/08/16 06:48:29;;;;;;;22.03;15.43;;;;;;;;;;5013153;28;20209;-71
2022/08/16 06:51:01;;;;;;;19.03;16.37;;;;;;;;;;5012510;28;20194;-73
2022/08/16 06:53:28;;;;;;;17.67;15.70;;;;;;;;;;5021342;28;20294;-70
2022/08/16 06:55:59;;;;;;;16.87;15.00;;;;;;;;;;5023418;28;20198;-75
2022/08/16 06:58:39;;;;;;;20.00;15.07;;;;;;;;;;5020969;28;20856;-74
2022/08/16 07:01:15;;;;;;;17.63;15.27;;;;;;;;;;5033072;28;20198;-74
2022/08/16 07:03:49;;;;;;;20.23;15.57;;;;;;;;;;5031230;28;20199;-72
2022/08/16 07:06:30;;;;;;;19.60;15.07;;;;;;;;;;5029852;28;20766;-75
2022/08/16 07:09:00;;;;;;;16.00;14.30;;;;;;;;;;5038073;28;21093;-67
2022/08/16 07:11:36;;;;;;;16.70;14.30;;;;;;;;;;5054835;28;20202;-73
2022/08/16 07:14:17;;;;;;;16.03;14.03;;;;;;;;;;5056394;28;20189;-73
2022/08/16 07:17:04;;;;;;;14.73;12.97;;;;;;;;;;5050916;28;20331;-72
2022/08/16 07:19:41;;;;;;;15.63;12.67;;;;;;;;;;5053447;28;20608;-73
2022/08/16 07:22:34;;;;;;;15.17;13.57;;;;;;;;;;5057477;28;20190;-74
2022/08/16 07:25:17;;;;;;;14.90;13.33;;;;;;;;;;5053564;28;20208;-73
2022/08/16 07:28:01;;;;;;;14.23;12.73;;;;;;;;;;5039640;28;20208;-74
2022/08/16 07:30:30;;;;;;;14.23;12.80;;;;;;;;;;5053263;28;20220;-74
2022/08/16 07:33:41;;;;;;;14.37;12.70;;;;;;;;;;5053560;28;20219;-74
2022/08/16 07:36:26;;;;;;;15.40;12.97;;;;;;;;;;5041107;28;20203;-73
2022/08/16 07:38:56;;;;;;;14.13;12.63;;;;;;;;;;5053084;28;20304;-73
2022/08/16 07:41:24;;;;;;;14.43;12.93;;;;;;;;;;5071139;28;20580;-73
2022/08/16 07:43:58;;;;;;;14.20;12.60;;;;;;;;;;5052974;28;20195;-73
2022/08/16 07:46:27;;;;;;;17.50;13.80;;;;;;;;;;5031566;28;20318;-73
2022/08/16 07:49:19;;;;;;;15.40;12.80;;;;;;;;;;5039555;28;20691;-73
2022/08/16 07:52:06;;;;;;;15.40;11.80;;;;;;;;;;5053466;28;20225;-74
2022/08/16 07:54:46;;;;;;;15.33;13.17;;;;;;;;;;5053081;28;20190;-74
2022/08/16 07:57:18;;;;;;;13.93;12.63;;;;;;;;;;5052926;28;20202;-74
2022/08/16 07:59:51;;;;;;;13.77;12.37;;;;;;;;;;5070469;28;20217;-74
2022/08/16 08:02:39;;;;;;;16.73;12.83;;;;;;;;;;5070438;28;20571;-75
2022/08/16 08:05:14;;;;;;;19.50;12.93;;;;;;;;;;5052562;28;20883;-74
2022/08/16 08:07:52;;;;;;;14.10;12.60;;;;;;;;;;5052666;28;20254;-76
2022/08/16 08:10:23;;;;;;;16.13;12.80;;;;;;;;;;5036760;28;20248;-75
2022/08/16 08:12:58;;;;;;;16.40;12.87;;;;;;;;;;5037425;28;20209;-75
2022/08/16 08:15:26;;;;;;;16.47;13.07;;;;;;;;;;5049298;28;20199;-75
2022/08/16 08:18:00;;;;;;;13.90;12.50;;;;;;;;;;5050110;28;20199;-72
2022/08/16 08:24:55;;;;;;;15.77;14.30;;;;;;;;;;5035266;28;20218;-71
2022/08/16 08:27:31;;;;;;;14.57;13.03;;;;;;;;;;5034948;28;20865;-72
2022/08/16 08:30:00;;;;;;;15.77;14.03;;;;;;;;;;5040828;28;20225;-71
2022/08/16 08:32:50;;;;;;;17.10;13.47;;;;;;;;;;5042568;28;20232;-73
2022/08/16 08:35:33;;;;;;;13.87;12.50;;;;;;;;;;5068411;28;20204;-73
2022/08/16 08:38:02;;;;;;;13.73;12.33;;;;;;;;;;5062028;28;20249;-72
2022/08/16 08:40:32;;;;;;;13.97;12.43;;;;;;;;;;5043461;28;20677;-71
2022/08/16 08:43:12;;;;;;;17.97;13.33;;;;;;;;;;5061922;28;20205;-71
2022/08/16 08:49:47;;;;;;;15.13;13.43;;;;;;;;;;5065972;28;20210;-73
2022/08/16 08:52:47;;;;;;;16.00;13.27;;;;;;;;;;5039082;28;20205;-72
2022/08/16 08:56:07;;;;;;;17.40;13.23;;;;;;;;;;5068120;28;20700;-73
2022/08/16 08:59:34;;;;;;;15.80;13.50;;;;;;;;;;5043521;28;20359;-72
2022/08/16 09:02:11;;;;;;;15.63;12.03;;;;;;;;;;5023004;28;20195;-73
2022/08/16 09:04:50;;;;;;;13.43;11.80;;;;;;;;;;5043311;28;20612;-77
2022/08/16 09:07:21;;;;;;;19.03;12.27;;;;;;;;;;5051837;28;20943;-77
2022/08/16 09:10:07;;;;;;;13.13;11.77;;;;;;;;;;5049925;28;20206;-76
2022/08/16 09:12:47;;;;;;;13.60;12.27;;;;;;;;;;5051617;28;20202;-73
2022/08/16 09:15:20;;;;;;;14.40;11.33;;;;;;;;;;5050049;28;20198;-77
2022/08/16 09:17:51;;;;;;;14.27;11.43;;;;;;;;;;5042410;28;20205;-73
2022/08/16 09:20:24;;;;;;;13.37;11.90;;;;;;;;;;5050066;28;20194;-74
2022/08/16 09:23:30;;;;;;;14.37;11.97;;;;;;;;;;4999688;28;20230;-73
2022/08/16 09:26:04;;;;;;;13.03;11.70;;;;;;;;;;4974911;28;20196;-76
2022/08/16 09:28:51;;;;;;;12.23;10.90;;;;;;;;;;4990487;28;20950;-73
2022/08/16 09:31:38;;;;;;;13.33;10.80;;;;;;;;;;4988669;28;20196;-72
2022/08/16 09:37:51;;;;;;;14.33;10.83;;;;;;;;;;4996267;28;20207;-69
2022/08/16 09:40:27;;;;;;;12.50;11.10;;;;;;;;;;5007281;28;20707;-72
2022/08/16 09:43:08;;;;;;;11.87;10.73;;;;;;;;;;4999360;28;20920;-73
2022/08/16 09:45:41;;;;;;;11.17;10.00;;;;;;;;;;4999649;28;20350;-71
2022/08/16 09:48:09;;;;;;;11.03;9.90;;;;;;;;;;5000430;28;20287;-74
2022/08/16 09:50:57;;;;;;;13.53;9.93;;;;;;;;;;4980173;28;20765;-72
2022/08/16 09:53:41;;;;;;;13.90;10.67;;;;;;;;;;5007392;28;20437;-73
2022/08/16 09:56:16;;;;;;;11.57;10.33;;;;;;;;;;5038130;28;20208;-71
2022/08/16 09:58:43;;;;;;;11.87;10.67;;;;;;;;;;5032150;28;20198;-78
2022/08/16 10:01:30;;;;;;;10.97;9.97;;;;;;;;;;5053959;28;20217;-77
2022/08/16 10:03:59;;;;;;;10.23;9.20;;;;;;;;;;5038112;28;20195;-74
2022/08/16 10:06:28;;;;;;;10.30;9.33;;;;;;;;;;5037258;28;20332;-78
2022/08/16 10:09:00;;;;;;;9.87;8.80;;;;;;;;;;5016405;28;20198;-75
2022/08/16 10:14:19;;;;;;;13.23;9.37;;;;;;;;;;5041379;28;20190;-74
2022/08/16 10:17:00;;;;;;;10.90;8.87;;;;;;;;;;5043116;28;20194;-70
2022/08/16 10:19:28;;;;;;;11.50;8.70;;;;;;;;;;5019176;28;20867;-75
2022/08/16 10:22:12;;;;;;;10.23;9.17;;;;;;;;;;5060454;28;20182;-70
2022/08/16 10:24:43;;;;;;;10.00;9.00;;;;;;;;;;5036517;28;20186;-71
2022/08/16 10:27:25;;;;;;;11.13;9.50;;;;;;;;;;5040079;28;20697;-71
2022/08/16 10:30:12;;;;;;;9.50;8.60;;;;;;;;;;5059336;28;20304;-69
2022/08/16 10:32:54;;;;;;;12.23;8.50;;;;;;;;;;5036000;28;20214;-71
2022/08/16 10:35:21;;;;;;;10.77;8.50;;;;;;;;;;5033845;28;20256;-74
2022/08/16 10:37:48;;;;;;;9.30;8.17;;;;;;;;;;5035581;28;20194;-69
2022/08/16 10:40:18;;;;;;;8.50;7.63;;;;;;;;;;5061410;28;20695;-71
2022/08/16 10:42:57;;;;;;;9.20;7.37;;;;;;;;;;5057085;28;20649;-80
2022/08/16 10:45:26;;;;;;;8.60;7.80;;;;;;;;;;5034699;28;20289;-76
2022/08/16 10:47:54;;;;;;;11.43;8.00;;;;;;;;;;5057312;28;20201;-76
2022/08/16 10:50:29;;;;;;;10.70;8.00;;;;;;;;;;5044375;28;20645;-79
2022/08/16 10:52:57;;;;;;;10.23;7.60;;;;;;;;;;5023647;28;20256;-72
2022/08/16 10:55:25;;;;;;;9.03;8.10;;;;;;;;;;5038422;28;20194;-72
2022/08/16 10:58:12;;;;;;;11.63;7.80;;;;;;;;;;5059110;28;20273;-72
2022/08/16 11:00:42;;;;;;;9.60;8.40;;;;;;;;;;5043325;28;20903;-72
2022/08/16 11:03:11;;;;;;;9.63;7.93;;;;;;;;;;5036193;28;20227;-72
2022/08/16 11:05:59;;;;;;;8.93;7.90;;;;;;;;;;5056777;28;20234;-72
2022/08/16 11:08:26;;;;;;;9.90;7.73;;;;;;;;;;5036421;28;20217;-75
2022/08/16 11:11:02;;;;;;;14.33;8.27;;;;;;;;;;5040744;28;20214;-76
2022/08/16 11:13:47;;;;;;;9.67;7.77;;;;;;;;;;5043579;28;20662;-72
2022/08/16 11:16:34;;;;;;;11.57;8.37;;;;;;;;;;5040416;28;20459;-72
2022/08/16 11:19:19;;;;;;;9.10;8.07;;;;;;;;;;5045025;28;20197;-73
2022/08/16 11:21:49;;;;;;;12.87;8.47;;;;;;;;;;5042160;28;20807;-76
2022/08/16 11:24:39;;;;;;;9.23;8.03;;;;;;;;;;5064207;28;20229;-73
2022/08/16 11:27:10;;;;;;;11.57;8.47;;;;;;;;;;5063632;28;20209;-75
2022/08/16 11:29:47;;;;;;;9.17;7.97;;;;;;;;;;5061823;28;20260;-79
2022/08/16 11:32:39;;;;;;;10.40;7.77;;;;;;;;;;5024037;28;20235;-77
2022/08/16 11:35:25;;;;;;;10.80;7.40;;;;;;;;;;5058951;28;20178;-76
2022/08/16 11:38:18;;;;;;;11.10;8.30;;;;;;;;;;5056413;28;20653;-75
2022/08/16 11:41:05;;;;;;;12.30;8.67;;;;;;;;;;5055865;28;20189;-72
2022/08/16 11:43:34;;;;;;;8.40;7.50;;;;;;;;;;5053056;28;20198;-74
2022/08/16 11:46:03;;;;;;;9.03;8.10;;;;;;;;;;5053448;28;20661;-75
2022/08/16 11:48:50;;;;;;;8.83;7.30;;;;;;;;;;5047902;28;20194;-73
2022/08/16 11:51:34;;;;;;;8.43;7.57;;;;;;;;;;5070689;28;20982;-73
2022/08/16 11:54:01;;;;;;;10.93;7.97;;;;;;;;;;5070706;28;20217;-74
2022/08/16 11:56:35;;;;;;;10.73;8.00;;;;;;;;;;5070301;28;20914;-73
2022/08/16 11:59:18;;;;;;;9.13;6.53;;;;;;;;;;5060293;28;20189;-72
2022/08/16 12:01:50;;;;;;;10.50;6.90;;;;;;;;;;5052824;28;20730;-72
2022/08/16 12:04:26;;;;;;;10.33;7.90;;;;;;;;;;5057477;28;20553;-74
2022/08/16 12:06:53;;;;;;;9.43;7.47;;;;;;;;;;5059493;28;20240;-75
2022/08/16 12:09:21;;;;;;;8.47;7.23;;;;;;;;;;5036361;28;20200;-73
2022/08/16 12:11:47;;;;;;;10.40;7.30;;;;;;;;;;5058242;28;20221;-72
2022/08/16 12:14:19;;;;;;;7.90;7.07;;;;;;;;;;5058309;28;20205;-79
2022/08/16 12:16:49;;;;;;;8.80;7.10;;;;;;;;;;5022641;28;20198;-75
2022/08/16 12:19:22;;;;;;;9.17;7.03;;;;;;;;;;5062566;28;20689;-72
2022/08/16 12:22:02;;;;;;;9.30;7.00;;;;;;;;;;5057523;28;20737;-73
2022/08/16 12:24:44;;;;;;;8.53;6.33;;;;;;;;;;5037157;28;20203;-72
2022/08/16 12:27:13;;;;;;;7.83;6.30;;;;;;;;;;5040148;28;20716;-73
2022/08/16 12:29:42;;;;;;;8.37;6.00;;;;;;;;;;5039012;28;20720;-74
2022/08/16 12:32:10;;;;;;;8.03;6.20;;;;;;;;;;5056465;28;20670;-77
2022/08/16 12:34:58;;;;;;;7.37;6.67;;;;;;;;;;5059471;28;20613;-71
2022/08/16 12:37:26;;;;;;;7.30;6.60;;;;;;;;;;5043997;28;20193;-70
2022/08/16 12:39:54;;;;;;;8.53;7.23;;;;;;;;;;5044768;28;20206;-70
2022/08/16 12:42:22;;;;;;;10.33;7.10;;;;;;;;;;5040569;28;20251;-75
2022/08/16 12:45:01;;;;;;;8.57;6.67;;;;;;;;;;5047630;28;20205;-74
2022/08/16 12:50:13;;;;;;;9.30;7.03;;;;;;;;;;5058242;28;20245;-72
2022/08/16 12:52:41;;;;;;;7.77;6.97;;;;;;;;;;5035651;28;20225;-72
2022/08/16 12:55:19;;;;;;;8.60;7.40;;;;;;;;;;5043384;28;20285;-72
2022/08/16 12:57:46;;;;;;;9.23;7.20;;;;;;;;;;5046701;28;20238;-73
2022/08/16 13:00:27;;;;;;;9.03;7.07;;;;;;;;;;5035105;28;20330;-71
2022/08/16 13:03:01;;;;;;;9.27;7.00;;;;;;;;;;5019572;28;20197;-70
2022/08/16 13:05:39;;;;;;;7.93;7.13;;;;;;;;;;5061506;28;20241;-75
2022/08/16 13:08:19;;;;;;;9.43;7.57;;;;;;;;;;5038992;28;20623;-77
2022/08/16 13:10:47;;;;;;;10.80;7.83;;;;;;;;;;5037596;28;20916;-79
2022/08/16 13:13:23;;;;;;;8.93;8.00;;;;;;;;;;5051523;28;20202;-73
2022/08/16 13:15:51;;;;;;;9.20;8.13;;;;;;;;;;5063367;28;20197;-71
2022/08/16 13:18:34;;;;;;;8.40;7.60;;;;;;;;;;5031748;28;20202;-74
2022/08/16 13:22:04;;;;;;;9.03;8.03;;;;;;;;;;5042396;28;20228;-73
2022/08/16 13:25:31;;;;;;;9.27;8.30;;;;;;;;;;5055805;28;20255;-70
2022/08/16 13:28:00;;;;;;;11.70;8.70;;;;;;;;;;5035514;28;20893;-78
2022/08/16 13:30:45;;;;;;;9.97;8.83;;;;;;;;;;5057127;28;20201;-75
2022/08/16 13:33:17;;;;;;;11.37;9.07;;;;;;;;;;5042163;28;20202;-76
2022/08/16 13:35:53;;;;;;;10.97;8.70;;;;;;;;;;5017964;28;20710;-76
2022/08/16 13:38:25;;;;;;;11.13;9.23;;;;;;;;;;5034534;28;20218;-74
2022/08/16 13:41:06;;;;;;;11.03;9.07;;;;;;;;;;5039182;28;20190;-75
2022/08/16 13:43:34;;;;;;;10.43;8.87;;;;;;;;;;5025237;28;21138;-69
2022/08/16 13:46:01;;;;;;;12.43;9.63;;;;;;;;;;5042054;28;20286;-72
2022/08/16 13:48:33;;;;;;;12.73;9.77;;;;;;;;;;5042222;28;20202;-78
2022/08/16 13:51:13;;;;;;;10.93;9.83;;;;;;;;;;5051001;28;20224;-75
2022/08/16 13:53:44;;;;;;;11.43;10.13;;;;;;;;;;5051663;28;20188;-71
2022/08/16 13:56:29;;;;;;;12.43;11.13;;;;;;;;;;5046066;28;20187;-70
2022/08/16 13:59:07;;;;;;;12.13;10.70;;;;;;;;;;5065811;28;20191;-74
2022/08/16 14:01:47;;;;;;;13.50;10.03;;;;;;;;;;5068574;28;20280;-67
2022/08/16 14:04:23;;;;;;;12.47;11.07;;;;;;;;;;5040335;28;20202;-82
2022/08/16 14:07:08;;;;;;;31.00;27.70;;;;;;;;;;5050552;28;20227;-71
2022/08/16 14:09:35;;;;;;;14.77;12.30;;;;;;;;;;5051685;28;20273;-68
2022/08/16 14:12:04;;;;;;;14.73;12.37;;;;;;;;;;5068753;28;20247;-71
2022/08/16 14:14:43;;;;;;;187.03;167.73;;;;;;;;;;5068705;28;20278;-72
2022/08/16 14:17:10;;;;;;;43.13;38.50;;;;;;;;;;5048783;28;21712;-71
2022/08/16 14:19:36;;;;;;;12.20;9.70;;;;;;;;;;5061027;28;20658;-66
2022/08/16 14:22:14;;;;;;;13.17;10.40;;;;;;;;;;5068495;28;20202;-71
2022/08/16 14:24:58;;;;;;;12.47;10.40;;;;;;;;;;5065790;28;20230;-70
2022/08/16 14:27:26;;;;;;;16.03;12.90;;;;;;;;;;5072111;28;20186;-63
2022/08/16 14:30:10;;;;;;;12.30;10.70;;;;;;;;;;5072325;28;20231;-73
2022/08/16 14:32:41;;;;;;;11.10;10.00;;;;;;;;;;5053815;28;20186;-70
2022/08/16 14:35:18;;;;;;;11.27;10.00;;;;;;;;;;5040077;28;20181;-74
2022/08/16 14:37:45;;;;;;;12.77;10.47;;;;;;;;;;5038712;28;20216;-71
2022/08/16 14:40:29;;;;;;;12.77;9.13;;;;;;;;;;5058589;28;20906;-70
2022/08/16 14:42:56;;;;;;;11.17;8.63;;;;;;;;;;5071428;28;20605;-70
2022/08/16 14:45:32;;;;;;;10.20;7.60;;;;;;;;;;5072233;28;20196;-70
2022/08/16 14:47:59;;;;;;;7.73;6.67;;;;;;;;;;5071791;28;20210;-70
2022/08/16 14:50:44;;;;;;;8.63;6.37;;;;;;;;;;5062010;28;20313;-70
2022/08/16 14:53:10;;;;;;;7.53;6.50;;;;;;;;;;5047186;28;20218;-69
2022/08/16 14:55:38;;;;;;;12.83;6.07;;;;;;;;;;5070877;28;20225;-70
2022/08/16 14:58:06;;;;;;;8.87;5.80;;;;;;;;;;5054432;28;20225;-68
2022/08/16 15:00:45;;;;;;;8.27;6.20;;;;;;;;;;5055819;28;20182;-68
2022/08/16 15:03:12;;;;;;;9.40;6.60;;;;;;;;;;5053413;28;20197;-72
2022/08/16 15:05:40;;;;;;;7.90;6.60;;;;;;;;;;5063234;28;20253;-73
2022/08/16 15:08:08;;;;;;;7.60;6.50;;;;;;;;;;5063645;28;20222;-70
2022/08/16 15:10:36;;;;;;;7.30;6.53;;;;;;;;;;5062547;28;20187;-72
2022/08/16 15:13:10;;;;;;;11.63;6.50;;;;;;;;;;5064365;28;20623;-72
2022/08/16 15:15:37;;;;;;;7.10;6.37;;;;;;;;;;5066092;28;20218;-69
2022/08/16 15:18:25;;;;;;;6.73;6.10;;;;;;;;;;5070689;28;20723;-69
2022/08/16 15:20:53;;;;;;;7.70;6.60;;;;;;;;;;5070588;28;20194;-69
2022/08/16 15:23:20;;;;;;;8.57;5.80;;;;;;;;;;5061928;28;20194;-69
2022/08/16 15:25:47;;;;;;;7.67;5.77;;;;;;;;;;5066423;28;20232;-69
2022/08/16 15:28:29;;;;;;;7.43;5.10;;;;;;;;;;5053442;28;20802;-69
2022/08/16 15:30:58;;;;;;;6.60;4.90;;;;;;;;;;5053591;28;20198;-70
2022/08/16 15:33:29;;;;;;;5.73;5.13;;;;;;;;;;5053895;28;20205;-69
2022/08/16 15:35:57;;;;;;;6.33;4.60;;;;;;;;;;5052635;28;20186;-69
2022/08/16 15:38:25;;;;;;;5.93;5.03;;;;;;;;;;5053159;28;20201;-70
2022/08/16 15:41:26;;;;;;;6.03;4.77;;;;;;;;;;5070918;28;20190;-69
2022/08/16 15:43:53;;;;;;;6.47;4.93;;;;;;;;;;5070871;28;20193;-70
2022/08/16 15:46:31;;;;;;;5.20;4.60;;;;;;;;;;5069544;28;20202;-70
2022/08/16 15:49:02;;;;;;;5.33;4.83;;;;;;;;;;5053469;28;20645;-70
2022/08/16 15:51:30;;;;;;;5.43;4.53;;;;;;;;;;5053399;28;20214;-70
2022/08/16 15:53:58;;;;;;;5.60;4.50;;;;;;;;;;5051431;28;20718;-70
2022/08/16 15:56:50;;;;;;;5.77;4.30;;;;;;;;;;5049878;28;20195;-71
2022/08/16 15:59:18;;;;;;;5.90;4.77;;;;;;;;;;5049010;28;20278;-71
2022/08/16 16:01:45;;;;;;;5.87;4.10;;;;;;;;;;5037761;28;20268;-70
2022/08/16 16:04:13;;;;;;;4.80;4.03;;;;;;;;;;5069308;28;20190;-70
2022/08/16 16:06:48;;;;;;;6.90;4.60;;;;;;;;;;5067423;28;20294;-71
2022/08/16 16:09:21;;;;;;;5.30;4.47;;;;;;;;;;5052854;28;21003;-71
2022/08/16 16:12:03;;;;;;;6.33;4.07;;;;;;;;;;5053650;28;20218;-70
2022/08/16 16:14:47;;;;;;;6.43;4.40;;;;;;;;;;5069910;28;20180;-70
2022/08/16 16:17:16;;;;;;;6.27;4.50;;;;;;;;;;5060884;28;20187;-71